Pagrindinis puslapis
METAR-TAF:

METAR-TAF

Oro uostai :

Bariločė, Argentina

platuma: 41-09S, ilguma: 071-10W, Aukštis: 845 m

Dabartinis oras

Ataskaita buvo paskelbta 40 minutes, ne 16:00 UTC
Vėjas 23 kt iš Vakarų/Šiaurės Vakarų
Temperatūra 4°C
Drėgmė 60%
Slėgis 1012 hPa
Matomumas 10 km arba daugiau
Išsisklaidę debesys ne aukštis 4000 ft

METAR: SAZS 151600Z 29023KT 9999 SCT040 04/M03 Q1012

Laikas: 13:40 (16:40 UTC)

Prognozė

Ataskaita buvo paskelbta 5 valandos ir 40 minutes, ne 11:00 UTC
Prognozė galioja nuo 15 metu 12 UTC su 16 metu 12 UTC
Vėjas 15 kt iš Vakarų/Šiaurės Vakarų
Matomumas 10 km arba daugiau
Išsisklaidę debesys ne aukštis 2500 ft
Tapsmas
nuo 15 metu 13 UTC su 15 metu 16 UTC
Matomumas 10 km arba daugiau
Mažai debesys ne aukštis 4000 ft
Tapsmas
nuo 15 metu 19 UTC su 15 metu 22 UTC
Vėjas 10 kt iš Vakarų/Šiaurės Vakarų

TAF: SAZS 151100Z 1512/1612 29015KT 9999 SCT025 TX06/1518Z TNM01/1608Z BECMG 1513/1516 9999 FEW040 BECMG 1519/1522 29010KT

Orai ataskaitas ir orų prognozės (METAR, TAF).

turimą stotys yra geltonos ir raudonos taškus žemėlapyje.

Perkelti pele per norėdami pamatyti stoties vardą.

Tada spustelėkite, norėdami matyti oro stebėjimo ir prognozės.

Norėdami pakeisti žemėlapį: spustelėkite ant žalios mygtukų su juodo kryžiaus žemyn,; žalią mygtuką su brūkšneliu, jei norite nutolinti; arba žalių rodyklių gretimoms žemėlapius.


METAR-TAF: